Time;durP1;ratioP1;P1;durP2;ratioP2;P2;SDS_P1;SDS_P2;PMS_P1;PMS_P2;Temp;Humidity;BMP_temperature;BMP_pressure;BME280_temperature;BME280_humidity;BME280_pressure;Samples;Min_cycle;Max_cycle;Signal;HPM_P1;HPM_P2
2022/09/18 00:00:54;;;;;;;;;;;;;;;11.95;100.00;97649.50;5009218;28;20059;-60
2022/09/18 00:03:19;;;;;;;;;;;;;;;11.68;100.00;97656.97;5010098;28;19995;-59
2022/09/18 00:05:44;;;;;;;;;;;;;;;11.43;100.00;97661.72;5010615;28;20063;-58
2022/09/18 00:08:10;;;;;;;;;;;;;;;11.63;100.00;97661.56;5008419;28;19913;-58
2022/09/18 00:10:42;;;;;;;;;;;;;;;11.88;100.00;97658.56;5005885;28;20100;-60
2022/09/18 00:13:08;;;;;;;;;;;;;;;11.97;100.00;97657.25;5008167;28;20009;-57
2022/09/18 00:15:33;;;;;;;;;;;;;;;11.55;100.00;97659.34;5007989;28;20012;-60
2022/09/18 00:17:58;;;;;;;;;;;;;;;11.28;100.00;97652.88;5009775;28;19917;-61
2022/09/18 00:20:23;;;;;;;;;;;;;;;11.66;100.00;97661.41;5008119;28;19921;-62
2022/09/18 00:22:49;;;;;;;;;;;;;;;11.52;100.00;97656.03;5009092;28;19909;-58
2022/09/18 00:25:14;;;;;;;;;;;;;;;11.28;100.00;97668.56;5011799;28;19913;-58
2022/09/18 00:27:39;;;;;;;;;;;;;;;11.33;100.00;97667.41;5008690;28;19913;-60
2022/09/18 00:30:05;;;;;;;;;;;;;;;11.49;100.00;97662.28;5009723;28;19928;-59
2022/09/18 00:32:30;;;;;;;;;;;;;;;11.67;100.00;97676.19;5008376;28;19917;-58
2022/09/18 00:34:55;;;;;;;;;;;;;;;11.59;100.00;97667.88;5010444;28;20008;-58
2022/09/18 00:37:20;;;;;;;;;;;;;;;12.06;100.00;97674.25;5007365;28;19918;-58
2022/09/18 00:39:46;;;;;;;;;;;;;;;11.71;100.00;97669.88;5005911;28;19920;-59
2022/09/18 00:42:11;;;;;;;;;;;;;;;11.70;100.00;97668.16;5005310;28;19921;-58
2022/09/18 00:44:39;;;;;;;;;;;;;;;11.91;100.00;97681.09;5006199;28;19968;-57
2022/09/18 00:47:08;;;;;;;;;;;;;;;11.53;100.00;97674.25;5008091;28;20014;-58
2022/09/18 00:49:34;;;;;;;;;;;;;;;11.55;100.00;97679.41;5010675;28;19990;-61
2022/09/18 00:52:00;;;;;;;;;;;;;;;11.56;100.00;97678.47;5008545;28;20330;-60
2022/09/18 00:54:42;;;;;;;;;;;;;;;11.36;100.00;97672.47;5010141;28;19909;-60
2022/09/18 00:57:13;;;;;;;;;;;;;;;11.66;100.00;97679.69;5007873;28;19983;-58
2022/09/18 00:59:40;;;;;;;;;;;;;;;11.60;100.00;97674.81;5009979;28;19971;-60
2022/09/18 01:02:06;;;;;;;;;;;;;;;11.98;100.00;97685.06;5009988;28;20629;-58
2022/09/18 01:04:31;;;;;;;;;;;;;;;11.82;100.00;97690.22;5010243;28;20004;-59
2022/09/18 01:07:08;;;;;;;;;;;;;;;11.94;100.00;97681.78;5009821;28;20121;-59
2022/09/18 01:09:43;;;;;;;;;;;;;;;11.82;100.00;97686.75;5011261;28;19913;-58
2022/09/18 01:12:09;;;;;;;;;;;;;;;11.56;100.00;97684.56;5008239;28;19920;-57
2022/09/18 01:14:50;;;;;;;;;;;;;;;12.25;100.00;97681.97;5009127;28;19913;-59
2022/09/18 01:17:45;;;;;;;;;;;;;;;12.04;100.00;97683.91;5008212;28;19923;-56
2022/09/18 01:20:29;;;;;;;;;;;;;;;12.04;100.00;97687.38;4989578;28;20331;-57
2022/09/18 01:23:14;;;;;;;;;;;;;;;12.01;100.00;97673.63;5009332;28;19921;-57
2022/09/18 01:25:50;;;;;;;;;;;;;;;12.07;100.00;97668.91;5008654;28;19925;-59
2022/09/18 01:28:36;;;;;;;;;;;;;;;11.96;100.00;97668.63;5011628;28;19919;-58
2022/09/18 01:31:05;;;;;;;;;;;;;;;12.04;100.00;97668.22;5007417;28;20421;-57
2022/09/18 01:33:35;;;;;;;;;;;;;;;11.87;100.00;97669.94;5009412;28;19913;-58
2022/09/18 01:36:03;;;;;;;;;;;;;;;12.15;100.00;97666.75;5009170;28;19917;-58
2022/09/18 01:38:31;;;;;;;;;;;;;;;11.80;100.00;97672.94;5008257;28;20433;-60
2022/09/18 01:40:57;;;;;;;;;;;;;;;11.79;100.00;97671.25;5007860;28;19917;-59
2022/09/18 01:43:23;;;;;;;;;;;;;;;11.72;100.00;97668.94;5009594;28;19924;-60
2022/09/18 01:45:51;;;;;;;;;;;;;;;12.10;100.00;97679.22;5006466;28;19917;-59
2022/09/18 01:48:25;;;;;;;;;;;;;;;11.89;100.00;97675.94;5011453;28;19920;-58
2022/09/18 01:50:55;;;;;;;;;;;;;;;12.11;100.00;97685.28;5005696;28;20461;-61
2022/09/18 01:53:23;;;;;;;;;;;;;;;12.11;100.00;97675.69;5007127;28;19924;-58
2022/09/18 01:56:00;;;;;;;;;;;;;;;11.85;100.00;97677.00;5007650;28;19925;-59
2022/09/18 01:58:27;;;;;;;;;;;;;;;12.24;100.00;97690.72;4989735;28;19917;-58
2022/09/18 02:00:53;;;;;;;;;;;;;;;12.25;100.00;97681.97;5006646;28;19976;-57
2022/09/18 02:03:21;;;;;;;;;;;;;;;11.72;100.00;97676.78;5007878;28;20698;-57
2022/09/18 02:05:53;;;;;;;;;;;;;;;11.74;100.00;97682.78;5006952;28;20010;-59
2022/09/18 02:08:46;;;;;;;;;;;;;;;12.36;100.00;97689.25;5008249;28;20041;-57
2022/09/18 02:11:12;;;;;;;;;;;;;;;11.88;100.00;97679.47;5005334;28;19917;-58
2022/09/18 02:13:41;;;;;;;;;;;;;;;12.10;100.00;97694.91;5008977;28;19921;-59
2022/09/18 02:16:13;;;;;;;;;;;;;;;12.13;100.00;97689.53;5008919;28;19921;-59
2022/09/18 02:18:40;;;;;;;;;;;;;;;12.25;100.00;97687.19;5009784;28;19922;-59
2022/09/18 02:21:10;;;;;;;;;;;;;;;12.34;100.00;97687.53;5007743;28;19975;-57
2022/09/18 02:23:37;;;;;;;;;;;;;;;12.25;100.00;97692.41;5009328;28;19913;-59
2022/09/18 02:26:06;;;;;;;;;;;;;;;11.82;100.00;97682.41;5009102;28;19924;-60
2022/09/18 02:28:32;;;;;;;;;;;;;;;12.28;100.00;97679.19;5010196;28;19913;-60
2022/09/18 02:30:57;;;;;;;;;;;;;;;12.34;100.00;97671.00;5005844;28;19978;-60
2022/09/18 02:33:24;;;;;;;;;;;;;;;12.34;100.00;97676.25;5010114;28;19913;-59
2022/09/18 02:35:56;;;;;;;;;;;;;;;12.45;100.00;97675.66;5008604;28;19924;-60
2022/09/18 02:38:30;;;;;;;;;;;;;;;12.11;100.00;97680.94;5007471;28;19917;-59
2022/09/18 02:41:03;;;;;;;;;;;;;;;12.52;100.00;97693.56;5008135;28;19917;-59
2022/09/18 02:43:43;;;;;;;;;;;;;;;12.29;100.00;97683.47;5009493;28;19944;-57
2022/09/18 02:46:21;;;;;;;;;;;;;;;11.85;100.00;97678.75;5009217;28;20020;-56
2022/09/18 02:49:06;;;;;;;;;;;;;;;12.04;100.00;97684.78;5009637;28;20027;-59
2022/09/18 02:51:49;;;;;;;;;;;;;;;12.33;100.00;97679.75;5005996;28;19917;-58
2022/09/18 02:54:33;;;;;;;;;;;;;;;12.12;100.00;97677.38;5009482;28;20393;-56
2022/09/18 02:57:01;;;;;;;;;;;;;;;12.45;100.00;97668.66;5007955;28;19921;-56
2022/09/18 02:59:38;;;;;;;;;;;;;;;12.30;100.00;97672.09;5007803;28;19996;-58
2022/09/18 03:02:05;;;;;;;;;;;;;;;11.87;100.00;97683.00;5007130;28;19917;-57
2022/09/18 03:04:30;;;;;;;;;;;;;;;11.79;100.00;97684.31;5011509;28;19913;-56
2022/09/18 03:06:55;;;;;;;;;;;;;;;11.95;100.00;97682.63;5010502;28;20295;-57
2022/09/18 03:09:21;;;;;;;;;;;;;;;12.26;100.00;97684.50;5009279;28;20422;-56
2022/09/18 03:11:46;;;;;;;;;;;;;;;12.13;100.00;97688.66;5010096;28;19921;-57
2022/09/18 03:14:11;;;;;;;;;;;;;;;11.51;100.00;97683.94;5010781;28;19927;-60
2022/09/18 03:16:36;;;;;;;;;;;;;;;11.87;100.00;97683.00;5009852;28;19960;-59
2022/09/18 03:19:02;;;;;;;;;;;;;;;12.16;100.00;97683.28;5012216;28;20007;-59
2022/09/18 03:21:27;;;;;;;;;;;;;;;12.15;100.00;97685.06;5009887;28;19968;-60
2022/09/18 03:23:53;;;;;;;;;;;;;;;12.03;100.00;97684.84;5010086;28;20374;-60
2022/09/18 03:26:18;;;;;;;;;;;;;;;11.83;100.00;97675.38;5010638;28;20012;-59
2022/09/18 03:28:43;;;;;;;;;;;;;;;12.33;100.00;97679.75;5011109;28;19913;-61
2022/09/18 03:31:09;;;;;;;;;;;;;;;12.02;100.00;97686.63;5010632;28;19913;-58
2022/09/18 03:33:35;;;;;;;;;;;;;;;12.33;100.00;97677.16;5011098;28;19920;-61
2022/09/18 03:36:01;;;;;;;;;;;;;;;12.00;100.00;97683.22;5011269;28;20370;-60
2022/09/18 03:38:26;;;;;;;;;;;;;;;12.13;100.00;97683.44;5011885;28;20452;-60
2022/09/18 03:40:51;;;;;;;;;;;;;;;12.43;100.00;97690.59;5007977;28;19921;-60
2022/09/18 03:43:16;;;;;;;;;;;;;;;12.43;100.00;97680.13;5010690;28;20024;-60
2022/09/18 03:45:42;;;;;;;;;;;;;;;12.04;100.00;97679.56;5010053;28;19917;-58
2022/09/18 03:48:07;;;;;;;;;;;;;;;12.18;100.00;97680.59;5009144;28;19924;-57
2022/09/18 03:50:32;;;;;;;;;;;;;;;11.89;100.00;97682.91;5007201;28;19993;-57
2022/09/18 03:52:57;;;;;;;;;;;;;;;12.40;100.00;97681.13;5010522;28;19917;-60
2022/09/18 03:55:23;;;;;;;;;;;;;;;12.34;100.00;97684.09;5010567;28;19925;-61
2022/09/18 03:57:49;;;;;;;;;;;;;;;12.41;100.00;97679.38;5011251;28;19920;-60
2022/09/18 04:00:14;;;;;;;;;;;;;;;12.05;100.00;97681.22;5007987;28;19943;-58
2022/09/18 04:02:40;;;;;;;;;;;;;;;12.03;100.00;97683.06;5010254;28;19912;-58
2022/09/18 04:05:05;;;;;;;;;;;;;;;12.50;100.00;97684.13;5009699;28;19961;-58
2022/09/18 04:07:31;;;;;;;;;;;;;;;12.25;100.00;97681.97;5009943;28;19909;-57
2022/09/18 04:09:57;;;;;;;;;;;;;;;12.40;100.00;97678.50;5009684;28;19913;-57
2022/09/18 04:12:22;;;;;;;;;;;;;;;12.04;100.00;97679.56;5008567;28;20374;-60
2022/09/18 04:14:48;;;;;;;;;;;;;;;12.25;100.00;97685.41;5010781;28;20425;-60
2022/09/18 04:17:13;;;;;;;;;;;;;;;12.41;100.00;97677.59;5010246;28;19917;-60
2022/09/18 04:19:38;;;;;;;;;;;;;;;12.18;100.00;97680.59;5009968;28;19917;-59
2022/09/18 04:22:03;;;;;;;;;;;;;;;12.23;100.00;97681.19;5010534;28;19917;-58
2022/09/18 04:24:29;;;;;;;;;;;;;;;12.07;100.00;97684.59;5009874;28;20000;-60
2022/09/18 04:26:54;;;;;;;;;;;;;;;11.85;100.00;97684.00;5010868;28;19917;-60
2022/09/18 04:29:19;;;;;;;;;;;;;;;12.06;100.00;97682.94;5010091;28;19913;-60
2022/09/18 04:31:45;;;;;;;;;;;;;;;12.24;100.00;97680.25;5007668;28;19953;-59
2022/09/18 04:34:10;;;;;;;;;;;;;;;12.59;100.00;97678.38;5011837;28;20263;-60
2022/09/18 04:36:35;;;;;;;;;;;;;;;12.62;100.00;97674.75;5009549;28;20287;-59
2022/09/18 04:39:00;;;;;;;;;;;;;;;12.62;100.00;97683.44;4990933;28;19921;-59
2022/09/18 04:41:25;;;;;;;;;;;;;;;12.17;100.00;97678.88;5010265;28;19923;-59
2022/09/18 04:43:51;;;;;;;;;;;;;;;12.53;100.00;97690.03;5008795;28;19919;-57
2022/09/18 04:46:16;;;;;;;;;;;;;;;12.31;100.00;97687.72;5009772;28;19927;-59
2022/09/18 04:48:45;;;;;;;;;;;;;;;12.39;100.00;97691.66;5009417;28;19909;-58
2022/09/18 04:51:10;;;;;;;;;;;;;;;12.41;100.00;97688.06;5009841;28;20393;-58
2022/09/18 04:53:36;;;;;;;;;;;;;;;12.25;100.00;97687.19;5010126;28;19913;-58
2022/09/18 04:56:02;;;;;;;;;;;;;;;12.31;100.00;97697.31;5009941;28;19925;-57
2022/09/18 04:58:27;;;;;;;;;;;;;;;12.32;100.00;97696.41;5002174;28;19917;-57
2022/09/18 05:00:52;;;;;;;;;;;;;;;12.43;100.00;97701.91;5010114;28;19917;-58
2022/09/18 05:03:18;;;;;;;;;;;;;;;12.41;100.00;97700.31;5009774;28;19917;-57
2022/09/18 05:05:43;;;;;;;;;;;;;;;12.61;100.00;97699.22;5007787;28;19963;-59
2022/09/18 05:08:08;;;;;;;;;;;;;;;12.70;100.00;97694.34;5010719;28;19913;-59
2022/09/18 05:10:34;;;;;;;;;;;;;;;12.65;100.00;97692.91;5009236;28;19921;-60
2022/09/18 05:12:59;;;;;;;;;;;;;;;12.38;100.00;97705.69;5009583;28;19917;-58
2022/09/18 05:15:24;;;;;;;;;;;;;;;12.36;100.00;97700.53;5001410;28;20053;-60
2022/09/18 05:18:00;;;;;;;;;;;;;;;12.40;100.00;97704.66;5010960;28;19917;-60
2022/09/18 05:20:25;;;;;;;;;;;;;;;12.47;100.00;97707.81;5010633;28;19912;-60
2022/09/18 05:22:50;;;;;;;;;;;;;;;12.39;100.00;97709.97;5007439;28;19916;-60
2022/09/18 05:25:16;;;;;;;;;;;;;;;12.54;100.00;97704.78;5007747;28;19913;-60
2022/09/18 05:27:41;;;;;;;;;;;;;;;13.05;100.00;97702.03;5010226;28;20430;-57
2022/09/18 05:30:07;;;;;;;;;;;;;;;12.46;100.00;97706.97;5011847;28;19913;-58
2022/09/18 05:32:32;;;;;;;;;;;;;;;12.71;100.00;97696.03;5009417;28;19917;-58
2022/09/18 05:34:57;;;;;;;;;;;;;;;12.39;100.00;97695.16;5009918;28;19972;-60
2022/09/18 05:37:22;;;;;;;;;;;;;;;12.87;100.00;97701.25;5008060;28;19917;-58
2022/09/18 05:39:48;;;;;;;;;;;;;;;12.91;100.00;97702.78;5011288;28;19956;-58
2022/09/18 05:42:13;;;;;;;;;;;;;;;12.88;100.00;97695.13;5009157;28;19917;-58
2022/09/18 05:44:38;;;;;;;;;;;;;;;12.86;100.00;97704.81;5009224;28;19918;-59
2022/09/18 05:47:04;;;;;;;;;;;;;;;12.79;100.00;97692.13;5007506;28;19923;-59
2022/09/18 05:49:29;;;;;;;;;;;;;;;12.86;100.00;97694.31;5009432;28;20401;-59
2022/09/18 05:51:55;;;;;;;;;;;;;;;12.61;100.00;97699.22;5008172;28;19917;-60
2022/09/18 05:54:20;;;;;;;;;;;;;;;12.90;100.00;97697.63;5008795;28;19917;-59
2022/09/18 05:56:45;;;;;;;;;;;;;;;12.98;100.00;97702.47;5008493;28;19959;-60
2022/09/18 05:59:11;;;;;;;;;;;;;;;12.73;100.00;97701.19;5009025;28;19975;-60
2022/09/18 06:01:36;;;;;;;;;;;;;;;12.69;100.00;97704.88;5007424;28;19924;-58
2022/09/18 06:04:02;;;;;;;;;;;;;;;12.99;100.00;97704.13;5007784;28;19968;-60
2022/09/18 06:06:28;;;;;;;;;;;;;;;13.39;100.00;97699.31;5007242;28;19916;-58
2022/09/18 06:08:53;;;;;;;;;;;;;;;12.76;100.00;97703.63;4999471;28;19924;-57
2022/09/18 06:11:19;;;;;;;;;;;;;;;12.74;100.00;97700.25;5007587;28;20696;-60
2022/09/18 06:13:47;;;;;;;;;;;;;;;12.43;100.00;97709.75;5008582;28;20353;-61
2022/09/18 06:16:13;;;;;;;;;;;;;;;12.30;100.00;97711.34;5005918;28;20004;-57
2022/09/18 06:18:38;;;;;;;;;;;;;;;12.25;100.00;97719.41;5010559;28;19975;-58
2022/09/18 06:21:03;;;;;;;;;;;;;;;12.65;100.00;97721.69;5009173;28;20018;-61
2022/09/18 06:23:29;;;;;;;;;;;;;;;12.59;100.00;97722.88;5007887;28;19917;-57
2022/09/18 06:26:02;;;;;;;;;;;;;;;12.50;100.00;97723.34;5008342;28;19928;-58
2022/09/18 06:28:29;;;;;;;;;;;;;;;12.45;100.00;97736.66;5007510;28;19978;-57
2022/09/18 06:30:54;;;;;;;;;;;;;;;12.73;100.00;97732.56;5008342;28;20008;-58
2022/09/18 06:33:20;;;;;;;;;;;;;;;12.25;100.00;97735.09;5008776;28;20040;-58
2022/09/18 06:35:47;;;;;;;;;;;;;;;12.67;100.00;97725.06;5008260;28;20941;-59
2022/09/18 06:38:13;;;;;;;;;;;;;;;12.30;100.00;97727.03;5012646;28;20402;-59
2022/09/18 06:40:38;;;;;;;;;;;;;;;12.32;100.00;97731.25;5011132;28;19921;-58
2022/09/18 06:43:04;;;;;;;;;;;;;;;12.52;100.00;97731.97;5012607;28;19916;-59
2022/09/18 06:45:29;;;;;;;;;;;;;;;12.54;100.00;97741.41;5011644;28;20306;-58
2022/09/18 06:47:59;;;;;;;;;;;;;;;12.47;100.00;97733.97;5012853;28;19913;-57
2022/09/18 06:50:24;;;;;;;;;;;;;;;12.42;100.00;97731.59;5010574;28;20364;-59
2022/09/18 06:52:50;;;;;;;;;;;;;;;12.64;100.00;97744.38;5010677;28;20393;-59
2022/09/18 06:55:15;;;;;;;;;;;;;;;12.46;100.00;97740.97;5009132;28;19924;-59
2022/09/18 06:57:41;;;;;;;;;;;;;;;12.67;100.00;97741.59;5010843;28;19949;-58
2022/09/18 07:00:08;;;;;;;;;;;;;;;12.52;100.00;97740.66;5012813;28;19914;-58
2022/09/18 07:02:33;;;;;;;;;;;;;;;12.70;100.00;97740.56;5010054;28;19971;-58
2022/09/18 07:04:59;;;;;;;;;;;;;;;12.85;100.00;97744.16;5013561;28;19917;-57
2022/09/18 07:07:24;;;;;;;;;;;;;;;12.83;100.00;97746.88;5011653;28;20488;-57
2022/09/18 07:09:50;;;;;;;;;;;;;;;13.01;100.00;97744.16;5010855;28;20320;-57
2022/09/18 07:12:15;;;;;;;;;;;;;;;12.67;100.00;97746.00;5011406;28;20706;-58
2022/09/18 07:14:40;;;;;;;;;;;;;;;12.87;100.00;97742.31;5012711;28;20298;-57
2022/09/18 07:17:09;;;;;;;;;;;;;;;13.07;100.00;97736.00;5011603;28;20532;-57
2022/09/18 07:19:35;;;;;;;;;;;;;;;12.70;100.00;97748.44;5012088;28;19917;-59
2022/09/18 07:22:00;;;;;;;;;;;;;;;12.95;100.00;97754.97;5011090;28;20302;-61
2022/09/18 07:24:25;;;;;;;;;;;;;;;12.82;100.00;97749.56;5012163;28;20322;-58
2022/09/18 07:26:50;;;;;;;;;;;;;;;12.67;100.00;97740.78;5010745;28;19917;-61
2022/09/18 07:29:16;;;;;;;;;;;;;;;12.89;100.00;97748.31;5010084;28;19920;-59
2022/09/18 07:31:41;;;;;;;;;;;;;;;12.60;100.00;97749.88;5010052;28;20006;-58
2022/09/18 07:34:08;;;;;;;;;;;;;;;12.68;100.00;97764.25;5012092;28;20039;-61
2022/09/18 07:36:33;;;;;;;;;;;;;;;12.24;100.00;97756.09;5010820;28;19918;-60
2022/09/18 07:38:58;;;;;;;;;;;;;;;12.32;100.00;97757.38;5009083;28;19948;-59
2022/09/18 07:41:23;;;;;;;;;;;;;;;12.44;100.00;97766.38;5009680;28;19918;-61
2022/09/18 07:43:49;;;;;;;;;;;;;;;12.47;100.00;97760.13;5011725;28;19924;-61
2022/09/18 07:46:14;;;;;;;;;;;;;;;12.88;100.00;97765.78;5010761;28;19928;-61
2022/09/18 07:48:40;;;;;;;;;;;;;;;12.71;100.00;97763.22;4999805;28;19917;-61
2022/09/18 07:51:05;;;;;;;;;;;;;;;13.36;100.00;97771.06;5009572;28;19959;-62
2022/09/18 07:53:31;;;;;;;;;;;;;;;12.86;100.00;97770.22;5009206;28;19913;-60
2022/09/18 07:55:56;;;;;;;;;;;;;;;12.96;100.00;97772.34;5009788;28;19921;-58
2022/09/18 07:58:22;;;;;;;;;;;;;;;13.15;100.00;97770.44;5013320;28;19927;-61
2022/09/18 08:00:48;;;;;;;;;;;;;;;12.87;100.00;97768.47;5009242;28;20382;-60
2022/09/18 08:03:13;;;;;;;;;;;;;;;12.88;100.00;97771.03;5008911;28;19937;-59
2022/09/18 08:05:39;;;;;;;;;;;;;;;12.83;100.00;97773.03;5010738;28;19925;-58
2022/09/18 08:08:05;;;;;;;;;;;;;;;13.06;100.00;97781.41;5009726;28;20371;-58
2022/09/18 08:10:31;;;;;;;;;;;;;;;12.91;100.00;97783.94;5009284;28;20003;-58
2022/09/18 08:12:57;;;;;;;;;;;;;;;13.47;100.00;97773.06;5009088;28;20371;-60
2022/09/18 08:15:22;;;;;;;;;;;;;;;13.11;100.00;97782.00;5008895;28;19933;-59
2022/09/18 08:17:47;;;;;;;;;;;;;;;13.03;100.00;97773.72;5010160;28;19916;-60
2022/09/18 08:20:13;;;;;;;;;;;;;;;12.60;100.00;97792.56;5010674;28;19913;-60
2022/09/18 08:22:38;;;;;;;;;;;;;;;13.12;100.00;97783.69;5010684;28;19920;-59
2022/09/18 08:25:04;;;;;;;;;;;;;;;13.24;100.00;97780.41;5009523;28;19951;-60
2022/09/18 08:27:29;;;;;;;;;;;;;;;13.11;100.00;97782.00;5010769;28;19912;-62
2022/09/18 08:29:56;;;;;;;;;;;;;;;12.40;100.00;97780.53;5009468;28;19916;-60
2022/09/18 08:32:22;;;;;;;;;;;;;;;12.64;100.00;97791.47;5006645;28;19917;-62
2022/09/18 08:34:47;;;;;;;;;;;;;;;12.65;100.00;97787.09;4993843;28;19913;-61
2022/09/18 08:37:12;;;;;;;;;;;;;;;12.77;100.00;97782.97;5008960;28;19917;-59
2022/09/18 08:39:37;;;;;;;;;;;;;;;12.98;100.00;97786.22;5009663;28;19921;-59
2022/09/18 08:42:15;;;;;;;;;;;;;;;13.03;100.00;97784.19;5009780;28;19917;-59
2022/09/18 08:45:01;;;;;;;;;;;;;;;13.17;100.00;97794.75;5011973;28;19925;-57
2022/09/18 08:47:30;;;;;;;;;;;;;;;14.22;100.00;97801.97;5010759;28;19917;-59
2022/09/18 08:49:56;;;;;;;;;;;;;;;14.78;100.00;97810.88;5011494;28;20023;-60
2022/09/18 08:52:24;;;;;;;;;;;;;;;14.16;100.00;97791.84;5010079;28;20028;-59
2022/09/18 08:55:01;;;;;;;;;;;;;;;14.32;100.00;97787.38;5009530;28;19920;-58
2022/09/18 08:57:27;;;;;;;;;;;;;;;14.31;100.00;97780.44;5008632;28;19923;-60
2022/09/18 08:59:55;;;;;;;;;;;;;;;14.79;100.00;97777.59;5008285;28;19917;-58
2022/09/18 09:02:20;;;;;;;;;;;;;;;14.70;100.00;97779.00;5008458;28;19943;-58
2022/09/18 09:04:45;;;;;;;;;;;;;;;14.61;100.00;97767.28;5008064;28;19909;-60
2022/09/18 09:07:16;;;;;;;;;;;;;;;14.35;100.00;97771.44;5008457;28;19939;-61
2022/09/18 09:10:03;;;;;;;;;;;;;;;14.25;100.00;97770.31;5008041;28;19951;-59
2022/09/18 09:12:39;;;;;;;;;;;;;;;14.80;100.00;97761.75;5005148;28;19921;-59
2022/09/18 09:15:16;;;;;;;;;;;;;;;14.70;100.00;97770.28;5009567;28;19940;-60
2022/09/18 09:17:45;;;;;;;;;;;;;;;15.43;100.00;97770.06;5007237;28;19909;-60
2022/09/18 09:20:19;;;;;;;;;;;;;;;14.62;100.00;97760.25;5008902;28;19925;-61
2022/09/18 09:22:56;;;;;;;;;;;;;;;15.44;100.00;97774.38;5009988;28;19913;-61
2022/09/18 09:25:36;;;;;;;;;;;;;;;14.58;100.00;97766.63;5010135;28;19960;-60
2022/09/18 09:28:23;;;;;;;;;;;;;;;16.00;100.00;97769.84;5008244;28;19914;-58
2022/09/18 09:30:53;;;;;;;;;;;;;;;15.19;100.00;97756.72;5007584;28;20702;-61
2022/09/18 09:33:21;;;;;;;;;;;;;;;16.16;100.00;97756.50;5009220;28;20973;-63
2022/09/18 09:35:53;;;;;;;;;;;;;;;15.90;100.00;97753.00;5008401;28;19916;-62
2022/09/18 09:38:31;;;;;;;;;;;;;;;16.93;100.00;97755.66;5009162;28;19940;-61
2022/09/18 09:40:58;;;;;;;;;;;;;;;16.71;100.00;97749.22;5006725;28;19917;-62
2022/09/18 09:43:30;;;;;;;;;;;;;;;16.80;100.00;97757.41;5010645;28;19913;-61
2022/09/18 09:45:58;;;;;;;;;;;;;;;15.87;100.00;97755.81;5009467;28;19917;-60
2022/09/18 09:48:56;;;;;;;;;;;;;;;15.50;100.00;97745.06;5008339;28;19952;-62
2022/09/18 09:51:29;;;;;;;;;;;;;;;15.45;100.00;97741.88;4983892;28;19917;-60
2022/09/18 09:53:56;;;;;;;;;;;;;;;16.53;100.00;97745.25;5008532;28;19913;-60
2022/09/18 09:56:31;;;;;;;;;;;;;;;15.58;100.00;97737.50;5009907;28;19917;-58
2022/09/18 09:59:06;;;;;;;;;;;;;;;16.91;100.00;97768.09;5009472;28;20008;-58
2022/09/18 10:01:34;;;;;;;;;;;;;;;16.17;100.00;97752.06;5007366;28;20019;-59
2022/09/18 10:03:59;;;;;;;;;;;;;;;15.68;100.00;97744.78;5008293;28;19917;-59
2022/09/18 10:06:40;;;;;;;;;;;;;;;16.32;100.00;97747.56;5010120;28;19917;-62
2022/09/18 10:09:11;;;;;;;;;;;;;;;15.69;100.00;97738.59;5008763;28;19920;-61
2022/09/18 10:11:38;;;;;;;;;;;;;;;16.12;100.00;97751.53;5007865;28;19917;-62
2022/09/18 10:14:08;;;;;;;;;;;;;;;18.19;100.00;97751.72;5012572;28;19924;-61
2022/09/18 10:16:39;;;;;;;;;;;;;;;16.54;100.00;97723.22;5013003;28;20378;-59
2022/09/18 10:19:04;;;;;;;;;;;;;;;15.91;100.00;97736.25;5011709;28;20561;-62
2022/09/18 10:21:34;;;;;;;;;;;;;;;17.53;100.00;97746.06;4994549;28;20028;-63
2022/09/18 10:24:08;;;;;;;;;;;;;;;16.42;100.00;97732.00;5011604;28;19917;-61
2022/09/18 10:26:35;;;;;;;;;;;;;;;16.52;100.00;97739.16;5013127;28;19917;-63
2022/09/18 10:29:01;;;;;;;;;;;;;;;17.46;100.00;97732.50;5013689;28;19924;-61
2022/09/18 10:31:49;;;;;;;;;;;;;;;16.58;100.00;97722.09;5012160;28;19917;-60
2022/09/18 10:34:29;;;;;;;;;;;;;;;16.54;100.00;97736.38;5011389;28;19920;-60
2022/09/18 10:36:55;;;;;;;;;;;;;;;15.05;100.00;97720.78;5010392;28;19925;-60
2022/09/18 10:39:30;;;;;;;;;;;;;;;15.25;100.00;97737.09;5010605;28;19917;-58
2022/09/18 10:41:57;;;;;;;;;;;;;;;16.38;100.00;97745.34;5013664;28;19913;-59
2022/09/18 10:44:28;;;;;;;;;;;;;;;16.52;100.00;97739.16;5012484;28;19919;-59
2022/09/18 10:46:55;;;;;;;;;;;;;;;15.72;100.00;97733.16;5012248;28;19917;-57
2022/09/18 10:49:29;;;;;;;;;;;;;;;16.97;100.00;97738.69;5010873;28;20524;-60
2022/09/18 10:52:13;;;;;;;;;;;;;;;17.31;100.00;97731.84;5011669;28;19917;-57
2022/09/18 10:54:38;;;;;;;;;;;;;;;16.55;100.00;97717.03;5010690;28;20015;-58
2022/09/18 10:57:36;;;;;;;;;;;;;;;17.32;100.00;97715.03;5012540;28;19935;-60
2022/09/18 11:00:07;;;;;;;;;;;;;;;16.92;100.00;97704.75;4968049;28;19917;-58
2022/09/18 11:02:37;;;;;;;;;;;;;;;15.26;100.00;97704.63;5011854;28;19928;-58
2022/09/18 11:05:02;;;;;;;;;;;;;;;15.82;100.00;97718.47;5012738;28;19912;-61
2022/09/18 11:07:28;;;;;;;;;;;;;;;16.23;100.00;97728.00;5011858;28;20251;-61
2022/09/18 11:09:53;;;;;;;;;;;;;;;15.79;100.00;97705.53;5012877;28;20011;-58
2022/09/18 11:12:19;;;;;;;;;;;;;;;17.23;100.00;97712.25;5011113;28;19932;-61
2022/09/18 11:14:46;;;;;;;;;;;;;;;16.09;100.00;97693.88;5012124;28;19913;-61
2022/09/18 11:17:25;;;;;;;;;;;;;;;15.60;100.00;97703.25;5011475;28;19948;-58
2022/09/18 11:19:53;;;;;;;;;;;;;;;16.20;100.00;97701.88;5009914;28;19925;-60
2022/09/18 11:22:30;;;;;;;;;;;;;;;15.10;100.00;97697.72;5012506;28;20379;-61
2022/09/18 11:25:05;;;;;;;;;;;;;;;15.93;100.00;97715.13;5011900;28;20055;-59
2022/09/18 11:27:42;;;;;;;;;;;;;;;15.14;100.00;97714.94;5010833;28;19988;-57
2022/09/18 11:30:33;;;;;;;;;;;;;;;15.08;100.00;97712.72;5012374;28;19924;-58
2022/09/18 11:33:02;;;;;;;;;;;;;;;15.41;100.00;97714.97;5001646;28;19913;-61
2022/09/18 11:35:28;;;;;;;;;;;;;;;14.77;100.00;97706.78;5010135;28;19921;-60
2022/09/18 11:37:56;;;;;;;;;;;;;;;14.69;100.00;97702.97;5010704;28;20019;-59
2022/09/18 11:40:21;;;;;;;;;;;;;;;13.79;100.00;97712.72;5009829;28;19975;-59
2022/09/18 11:42:49;;;;;;;;;;;;;;;14.38;100.00;97705.66;5009829;28;19913;-59
2022/09/18 11:45:26;;;;;;;;;;;;;;;14.71;100.00;97709.81;5011942;28;20455;-58
2022/09/18 11:48:04;;;;;;;;;;;;;;;15.04;100.00;97706.00;5010279;28;20005;-58
2022/09/18 11:50:31;;;;;;;;;;;;;;;15.36;100.00;97695.19;5009667;28;20303;-58
2022/09/18 11:53:03;;;;;;;;;;;;;;;14.89;100.00;97689.44;5011846;28;19909;-59
2022/09/18 11:55:35;;;;;;;;;;;;;;;15.20;100.00;97690.94;5011754;28;20298;-58
2022/09/18 11:58:03;;;;;;;;;;;;;;;14.77;100.00;97691.03;5011480;28;19918;-58
2022/09/18 12:00:32;;;;;;;;;;;;;;;15.42;100.00;97700.06;5008872;28;20295;-57
2022/09/18 12:03:04;;;;;;;;;;;;;;;14.76;100.00;97683.25;5009796;28;19976;-58
2022/09/18 12:05:38;;;;;;;;;;;;;;;15.03;100.00;97693.78;5009203;28;19932;-60
2022/09/18 12:08:11;;;;;;;;;;;;;;;15.06;100.00;97682.25;5010791;28;19913;-60
2022/09/18 12:10:49;;;;;;;;;;;;;;;14.07;100.00;97672.59;5010334;28;19925;-60
2022/09/18 12:13:21;;;;;;;;;;;;;;;16.05;100.00;97693.25;5011488;28;19944;-60
2022/09/18 12:15:49;;;;;;;;;;;;;;;15.82;100.00;97686.91;5011650;28;19917;-61
2022/09/18 12:18:19;;;;;;;;;;;;;;;15.00;100.00;97667.75;5011578;28;19924;-60
2022/09/18 12:20:52;;;;;;;;;;;;;;;15.25;100.00;97666.97;4990525;28;19917;-58
2022/09/18 12:23:25;;;;;;;;;;;;;;;15.38;100.00;97667.00;5011964;28;19923;-58
2022/09/18 12:26:02;;;;;;;;;;;;;;;15.09;100.00;97661.91;5011337;28;20256;-60
2022/09/18 12:28:34;;;;;;;;;;;;;;;15.87;100.00;97669.03;5011705;28;20409;-59
2022/09/18 12:31:06;;;;;;;;;;;;;;;15.61;100.00;97653.19;5007850;28;19956;-60
2022/09/18 12:33:37;;;;;;;;;;;;;;;15.63;100.00;97652.25;5002927;28;20051;-59
2022/09/18 12:36:41;;;;;;;;;;;;;;;16.67;100.00;97652.09;5009901;28;19924;-57
2022/09/18 12:39:18;;;;;;;;;;;;;;;16.45;100.00;97639.63;4927233;29;20603;-58
2022/09/18 12:41:59;;;;;;;;;;;;;;;16.15;100.00;97625.88;4927854;29;19918;-58
2022/09/18 12:44:24;;;;;;;;;;;;;;;16.06;100.00;97630.94;4981149;28;20363;-59